sensor_id;sensor_type;location;lat;lon;timestamp;pressure;altitude;pressure_sealevel;temperature;humidity
16525;BME280;8375;33.594;-117.718;2023-01-10T00:02:07;100656.47;;;14.27;92.32
16525;BME280;8375;33.594;-117.718;2023-01-10T00:04:36;100642.81;;;14.13;93.76
16525;BME280;8375;33.594;-117.718;2023-01-10T00:07:06;100655.69;;;14.05;94.35
16525;BME280;8375;33.594;-117.718;2023-01-10T00:09:34;100652.94;;;14.06;95.61
16525;BME280;8375;33.594;-117.718;2023-01-10T00:12:03;100646.44;;;14.01;95.34
16525;BME280;8375;33.594;-117.718;2023-01-10T00:14:49;100651.56;;;14.02;95.66
16525;BME280;8375;33.594;-117.718;2023-01-10T00:17:18;100646.44;;;14.01;95.31
16525;BME280;8375;33.594;-117.718;2023-01-10T00:19:47;100649.06;;;14.01;95.74
16525;BME280;8375;33.594;-117.718;2023-01-10T00:22:17;100641.50;;;13.98;96.30
16525;BME280;8375;33.594;-117.718;2023-01-10T00:24:50;100636.94;;;13.90;96.80
16525;BME280;8375;33.594;-117.718;2023-01-10T00:27:19;100632.66;;;13.89;97.04
16525;BME280;8375;33.594;-117.718;2023-01-10T00:29:49;100640.75;;;13.86;97.30
16525;BME280;8375;33.594;-117.718;2023-01-10T00:32:19;100643.88;;;13.79;97.36
16525;BME280;8375;33.594;-117.718;2023-01-10T00:34:48;100664.34;;;13.84;97.45
16525;BME280;8375;33.594;-117.718;2023-01-10T00:37:18;100667.56;;;13.88;97.18
16525;BME280;8375;33.594;-117.718;2023-01-10T00:39:47;100670.72;;;13.91;96.48
16525;BME280;8375;33.594;-117.718;2023-01-10T00:42:15;100673.22;;;13.93;97.00
16525;BME280;8375;33.594;-117.718;2023-01-10T00:45:00;100677.59;;;13.92;96.73
16525;BME280;8375;33.594;-117.718;2023-01-10T00:47:29;100670.97;;;13.88;96.19
16525;BME280;8375;33.594;-117.718;2023-01-10T00:49:58;100673.13;;;13.83;97.39
16525;BME280;8375;33.594;-117.718;2023-01-10T00:52:28;100674.34;;;13.79;98.50
16525;BME280;8375;33.594;-117.718;2023-01-10T00:54:56;100681.66;;;13.85;99.15
16525;BME280;8375;33.594;-117.718;2023-01-10T00:57:25;100696.63;;;13.83;99.34
16525;BME280;8375;33.594;-117.718;2023-01-10T00:59:54;100700.88;;;13.84;99.67
16525;BME280;8375;33.594;-117.718;2023-01-10T01:02:22;100706.09;;;13.84;100.00
16525;BME280;8375;33.594;-117.718;2023-01-10T01:04:51;100711.47;;;13.83;100.00
16525;BME280;8375;33.594;-117.718;2023-01-10T01:07:19;100717.75;;;13.80;100.00
16525;BME280;8375;33.594;-117.718;2023-01-10T01:09:50;100717.25;;;13.86;100.00
16525;BME280;8375;33.594;-117.718;2023-01-10T01:12:35;100712.16;;;13.85;100.00
16525;BME280;8375;33.594;-117.718;2023-01-10T01:15:04;100722.97;;;13.80;100.00
16525;BME280;8375;33.594;-117.718;2023-01-10T01:17:33;100724.06;;;13.77;100.00
16525;BME280;8375;33.594;-117.718;2023-01-10T01:20:02;100715.34;;;13.67;100.00
16525;BME280;8375;33.594;-117.718;2023-01-10T01:22:30;100702.66;;;13.62;100.00
16525;BME280;8375;33.594;-117.718;2023-01-10T01:25:01;100701.00;;;13.61;100.00
16525;BME280;8375;33.594;-117.718;2023-01-10T01:27:30;100683.84;;;13.59;100.00
16525;BME280;8375;33.594;-117.718;2023-01-10T01:30:00;100684.53;;;13.61;100.00
16525;BME280;8375;33.594;-117.718;2023-01-10T01:32:28;100695.91;;;13.60;100.00
16525;BME280;8375;33.594;-117.718;2023-01-10T01:34:57;100717.03;;;13.57;100.00
16525;BME280;8375;33.594;-117.718;2023-01-10T01:37:26;100717.16;;;13.55;100.00
16525;BME280;8375;33.594;-117.718;2023-01-10T01:39:54;100713.59;;;13.56;100.00
16525;BME280;8375;33.594;-117.718;2023-01-10T01:42:27;100704.09;;;13.55;100.00
16525;BME280;8375;33.594;-117.718;2023-01-10T01:48:28;100709.78;;;13.60;100.00
16525;BME280;8375;33.594;-117.718;2023-01-10T01:51:02;100696.19;;;13.57;100.00
16525;BME280;8375;33.594;-117.718;2023-01-10T01:53:37;100690.13;;;13.56;100.00
16525;BME280;8375;33.594;-117.718;2023-01-10T01:56:10;100697.22;;;13.54;100.00
16525;BME280;8375;33.594;-117.718;2023-01-10T01:58:46;100690.25;;;13.55;100.00
16525;BME280;8375;33.594;-117.718;2023-01-10T02:01:17;100694.50;;;13.56;100.00
16525;BME280;8375;33.594;-117.718;2023-01-10T02:03:49;100694.38;;;13.57;100.00
16525;BME280;8375;33.594;-117.718;2023-01-10T02:06:20;100697.94;;;13.56;100.00
16525;BME280;8375;33.594;-117.718;2023-01-10T02:08:55;100697.13;;;13.56;100.00
16525;BME280;8375;33.594;-117.718;2023-01-10T02:11:28;100699.84;;;13.54;100.00
16525;BME280;8375;33.594;-117.718;2023-01-10T02:13:59;100715.13;;;13.59;100.00
16525;BME280;8375;33.594;-117.718;2023-01-10T02:16:29;100717.09;;;13.67;100.00
16525;BME280;8375;33.594;-117.718;2023-01-10T02:18:57;100730.28;;;13.65;100.00
16525;BME280;8375;33.594;-117.718;2023-01-10T02:24:41;100726.38;;;13.59;100.00
16525;BME280;8375;33.594;-117.718;2023-01-10T02:27:25;100732.78;;;13.55;100.00
16525;BME280;8375;33.594;-117.718;2023-01-10T02:33:01;100728.78;;;13.51;100.00
16525;BME280;8375;33.594;-117.718;2023-01-10T02:35:59;100729.88;;;13.48;100.00
16525;BME280;8375;33.594;-117.718;2023-01-10T02:38:48;100729.41;;;13.43;100.00
16525;BME280;8375;33.594;-117.718;2023-01-10T02:41:25;100715.63;;;13.41;100.00
16525;BME280;8375;33.594;-117.718;2023-01-10T02:44:01;100717.78;;;13.36;100.00
16525;BME280;8375;33.594;-117.718;2023-01-10T02:46:31;100708.91;;;13.27;100.00
16525;BME280;8375;33.594;-117.718;2023-01-10T02:49:02;100706.66;;;13.23;100.00
16525;BME280;8375;33.594;-117.718;2023-01-10T02:51:31;100715.31;;;13.23;100.00
16525;BME280;8375;33.594;-117.718;2023-01-10T02:54:03;100705.25;;;13.18;100.00
16525;BME280;8375;33.594;-117.718;2023-01-10T02:57:04;100692.72;;;13.12;100.00
16525;BME280;8375;33.594;-117.718;2023-01-10T03:00:15;100673.91;;;13.09;100.00
16525;BME280;8375;33.594;-117.718;2023-01-10T03:02:56;100647.25;;;13.05;100.00
16525;BME280;8375;33.594;-117.718;2023-01-10T03:05:41;100638.72;;;13.03;100.00
16525;BME280;8375;33.594;-117.718;2023-01-10T03:08:24;100637.91;;;13.02;100.00
16525;BME280;8375;33.594;-117.718;2023-01-10T03:10:57;100662.56;;;12.98;100.00
16525;BME280;8375;33.594;-117.718;2023-01-10T03:13:30;100678.06;;;13.00;100.00
16525;BME280;8375;33.594;-117.718;2023-01-10T03:16:04;100712.53;;;13.03;100.00
16525;BME280;8375;33.594;-117.718;2023-01-10T03:18:40;100715.84;;;13.05;100.00
16525;BME280;8375;33.594;-117.718;2023-01-10T03:21:12;100708.72;;;13.08;100.00
16525;BME280;8375;33.594;-117.718;2023-01-10T03:23:41;100708.72;;;13.08;100.00
16525;BME280;8375;33.594;-117.718;2023-01-10T03:26:11;100711.81;;;13.13;100.00
16525;BME280;8375;33.594;-117.718;2023-01-10T03:28:46;100715.34;;;13.12;100.00
16525;BME280;8375;33.594;-117.718;2023-01-10T03:31:17;100710.84;;;13.14;100.00
16525;BME280;8375;33.594;-117.718;2023-01-10T03:33:49;100711.66;;;13.14;100.00
16525;BME280;8375;33.594;-117.718;2023-01-10T03:36:26;100712.38;;;13.16;100.00
16525;BME280;8375;33.594;-117.718;2023-01-10T03:38:58;100717.59;;;13.16;100.00
16525;BME280;8375;33.594;-117.718;2023-01-10T03:41:36;100714.03;;;13.17;100.00
16525;BME280;8375;33.594;-117.718;2023-01-10T03:44:13;100710.59;;;13.17;100.00
16525;BME280;8375;33.594;-117.718;2023-01-10T03:47:04;100708.56;;;13.20;100.00
16525;BME280;8375;33.594;-117.718;2023-01-10T03:49:36;100709.50;;;13.19;100.00
16525;BME280;8375;33.594;-117.718;2023-01-10T03:52:08;100700.63;;;13.22;100.00
16525;BME280;8375;33.594;-117.718;2023-01-10T03:54:38;100699.22;;;13.18;100.00
16525;BME280;8375;33.594;-117.718;2023-01-10T03:57:15;100703.50;;;13.19;100.00
16525;BME280;8375;33.594;-117.718;2023-01-10T03:59:44;100712.25;;;13.18;100.00
16525;BME280;8375;33.594;-117.718;2023-01-10T04:02:13;100721.75;;;13.19;100.00
16525;BME280;8375;33.594;-117.718;2023-01-10T04:04:41;100724.09;;;13.22;100.00
16525;BME280;8375;33.594;-117.718;2023-01-10T04:07:11;100731.06;;;13.21;100.00
16525;BME280;8375;33.594;-117.718;2023-01-10T04:09:40;100721.59;;;13.20;100.00
16525;BME280;8375;33.594;-117.718;2023-01-10T04:12:09;100727.41;;;13.24;100.00
16525;BME280;8375;33.594;-117.718;2023-01-10T04:14:37;100717.69;;;13.26;100.00
16525;BME280;8375;33.594;-117.718;2023-01-10T04:17:06;100717.59;;;13.28;100.00
16525;BME280;8375;33.594;-117.718;2023-01-10T04:19:35;100722.91;;;13.26;100.00
16525;BME280;8375;33.594;-117.718;2023-01-10T04:22:03;100705.38;;;13.17;100.00
16525;BME280;8375;33.594;-117.718;2023-01-10T04:24:34;100698.31;;;13.08;100.00
16525;BME280;8375;33.594;-117.718;2023-01-10T04:27:04;100684.56;;;13.05;100.00
16525;BME280;8375;33.594;-117.718;2023-01-10T04:29:32;100670.22;;;13.00;100.00
16525;BME280;8375;33.594;-117.718;2023-01-10T04:32:01;100676.53;;;12.97;100.00
16525;BME280;8375;33.594;-117.718;2023-01-10T04:34:30;100672.50;;;12.93;100.00
16525;BME280;8375;33.594;-117.718;2023-01-10T04:36:58;100663.16;;;12.90;100.00
16525;BME280;8375;33.594;-117.718;2023-01-10T04:39:27;100661.63;;;12.88;100.00
16525;BME280;8375;33.594;-117.718;2023-01-10T04:41:57;100659.13;;;12.86;100.00
16525;BME280;8375;33.594;-117.718;2023-01-10T04:44:26;100656.66;;;12.85;100.00
16525;BME280;8375;33.594;-117.718;2023-01-10T04:46:55;100651.56;;;12.83;100.00
16525;BME280;8375;33.594;-117.718;2023-01-10T04:49:23;100655.00;;;12.84;100.00
16525;BME280;8375;33.594;-117.718;2023-01-10T04:51:52;100660.22;;;12.84;100.00
16525;BME280;8375;33.594;-117.718;2023-01-10T04:54:21;100656.78;;;12.83;100.00
16525;BME280;8375;33.594;-117.718;2023-01-10T04:56:50;100653.47;;;12.81;100.00
16525;BME280;8375;33.594;-117.718;2023-01-10T04:59:20;100665.66;;;12.81;100.00
16525;BME280;8375;33.594;-117.718;2023-01-10T05:01:49;100660.31;;;12.82;100.00
16525;BME280;8375;33.594;-117.718;2023-01-10T05:04:18;100676.09;;;12.81;100.00
16525;BME280;8375;33.594;-117.718;2023-01-10T05:06:46;100674.44;;;12.80;100.00
16525;BME280;8375;33.594;-117.718;2023-01-10T05:09:15;100674.44;;;12.80;100.00
16525;BME280;8375;33.594;-117.718;2023-01-10T05:11:44;100669.34;;;12.78;100.00
16525;BME280;8375;33.594;-117.718;2023-01-10T05:14:12;100664.13;;;12.78;100.00
16525;BME280;8375;33.594;-117.718;2023-01-10T05:16:42;100673.59;;;12.79;100.00
16525;BME280;8375;33.594;-117.718;2023-01-10T05:19:12;100665.91;;;12.77;100.00
16525;BME280;8375;33.594;-117.718;2023-01-10T05:21:41;100659.75;;;12.79;100.00
16525;BME280;8375;33.594;-117.718;2023-01-10T05:24:10;100634.66;;;12.77;100.00
16525;BME280;8375;33.594;-117.718;2023-01-10T05:26:39;100629.69;;;12.74;100.00
16525;BME280;8375;33.594;-117.718;2023-01-10T05:29:09;100626.13;;;12.75;100.00
16525;BME280;8375;33.594;-117.718;2023-01-10T05:31:38;100624.34;;;12.76;100.00
16525;BME280;8375;33.594;-117.718;2023-01-10T05:34:10;100633.00;;;12.76;100.00
16525;BME280;8375;33.594;-117.718;2023-01-10T05:36:39;100624.97;;;12.68;100.00
16525;BME280;8375;33.594;-117.718;2023-01-10T05:39:08;100639.03;;;12.66;100.00
16525;BME280;8375;33.594;-117.718;2023-01-10T05:41:37;100653.72;;;12.67;100.00
16525;BME280;8375;33.594;-117.718;2023-01-10T05:44:06;100660.72;;;12.66;100.00
16525;BME280;8375;33.594;-117.718;2023-01-10T05:46:35;100668.63;;;12.65;100.00
16525;BME280;8375;33.594;-117.718;2023-01-10T05:49:03;100676.34;;;12.66;100.00
16525;BME280;8375;33.594;-117.718;2023-01-10T05:51:34;100678.47;;;12.61;100.00
16525;BME280;8375;33.594;-117.718;2023-01-10T05:54:03;100668.78;;;12.63;100.00
16525;BME280;8375;33.594;-117.718;2023-01-10T05:56:32;100656.47;;;12.65;100.00
16525;BME280;8375;33.594;-117.718;2023-01-10T05:59:00;100663.09;;;12.58;100.00
16525;BME280;8375;33.594;-117.718;2023-01-10T06:01:29;100669.97;;;12.59;100.00
16525;BME280;8375;33.594;-117.718;2023-01-10T06:03:58;100655.84;;;12.61;100.00
16525;BME280;8375;33.594;-117.718;2023-01-10T06:06:27;100645.69;;;12.58;100.00
16525;BME280;8375;33.594;-117.718;2023-01-10T06:08:57;100642.13;;;12.59;100.00
16525;BME280;8375;33.594;-117.718;2023-01-10T06:11:26;100643.22;;;12.57;100.00
16525;BME280;8375;33.594;-117.718;2023-01-10T06:13:56;100647.81;;;12.53;100.00
16525;BME280;8375;33.594;-117.718;2023-01-10T06:16:24;100625.00;;;12.45;100.00
16525;BME280;8375;33.594;-117.718;2023-01-10T06:18:53;100632.66;;;12.47;100.00
16525;BME280;8375;33.594;-117.718;2023-01-10T06:21:22;100633.75;;;12.44;100.00
16525;BME280;8375;33.594;-117.718;2023-01-10T06:23:50;100642.50;;;12.43;100.00
16525;BME280;8375;33.594;-117.718;2023-01-10T06:26:21;100637.88;;;12.47;100.00
16525;BME280;8375;33.594;-117.718;2023-01-10T06:28:49;100642.50;;;12.43;100.00
16525;BME280;8375;33.594;-117.718;2023-01-10T06:31:18;100641.44;;;12.46;100.00
16525;BME280;8375;33.594;-117.718;2023-01-10T06:33:49;100639.53;;;12.48;100.00
16525;BME280;8375;33.594;-117.718;2023-01-10T06:36:18;100616.72;;;12.40;100.00
16525;BME280;8375;33.594;-117.718;2023-01-10T06:38:47;100610.81;;;12.38;100.00
16525;BME280;8375;33.594;-117.718;2023-01-10T06:41:15;100605.00;;;12.35;100.00
16525;BME280;8375;33.594;-117.718;2023-01-10T06:43:47;100594.00;;;12.31;100.00
16525;BME280;8375;33.594;-117.718;2023-01-10T06:46:17;100595.91;;;12.29;100.00
16525;BME280;8375;33.594;-117.718;2023-01-10T06:48:47;100595.19;;;12.27;100.00
16525;BME280;8375;33.594;-117.718;2023-01-10T06:51:16;100597.91;;;12.25;100.00
16525;BME280;8375;33.594;-117.718;2023-01-10T06:53:44;100606.66;;;12.24;100.00
16525;BME280;8375;33.594;-117.718;2023-01-10T06:56:14;100611.84;;;12.24;100.00
16525;BME280;8375;33.594;-117.718;2023-01-10T06:58:42;100609.00;;;12.27;100.00
16525;BME280;8375;33.594;-117.718;2023-01-10T07:01:15;100606.66;;;12.24;100.00
16525;BME280;8375;33.594;-117.718;2023-01-10T07:03:45;100605.13;;;12.22;100.00
16525;BME280;8375;33.594;-117.718;2023-01-10T07:06:14;100614.13;;;12.17;100.00
16525;BME280;8375;33.594;-117.718;2023-01-10T07:08:44;100610.09;;;12.13;100.00
16525;BME280;8375;33.594;-117.718;2023-01-10T07:11:14;100609.88;;;12.28;100.00
16525;BME280;8375;33.594;-117.718;2023-01-10T07:13:43;100608.91;;;12.29;100.00
16525;BME280;8375;33.594;-117.718;2023-01-10T07:16:14;100622.03;;;12.39;100.00
16525;BME280;8375;33.594;-117.718;2023-01-10T07:18:43;100607.72;;;12.44;100.00
16525;BME280;8375;33.594;-117.718;2023-01-10T07:21:12;100604.03;;;12.47;100.00
16525;BME280;8375;33.594;-117.718;2023-01-10T07:23:45;100590.22;;;12.35;100.00
16525;BME280;8375;33.594;-117.718;2023-01-10T07:26:14;100599.56;;;12.26;100.00
16525;BME280;8375;33.594;-117.718;2023-01-10T07:28:44;100620.50;;;12.25;100.00
16525;BME280;8375;33.594;-117.718;2023-01-10T07:31:18;100627.13;;;12.29;100.00
16525;BME280;8375;33.594;-117.718;2023-01-10T07:33:50;100622.50;;;12.32;100.00
16525;BME280;8375;33.594;-117.718;2023-01-10T07:36:19;100625.09;;;12.32;100.00
16525;BME280;8375;33.594;-117.718;2023-01-10T07:38:48;100629.50;;;12.32;100.00
16525;BME280;8375;33.594;-117.718;2023-01-10T07:41:17;100644.50;;;12.28;100.00
16525;BME280;8375;33.594;-117.718;2023-01-10T07:43:45;100638.03;;;12.34;100.00
16525;BME280;8375;33.594;-117.718;2023-01-10T07:46:14;100624.53;;;12.29;100.00
16525;BME280;8375;33.594;-117.718;2023-01-10T07:48:45;100615.78;;;12.18;100.00
16525;BME280;8375;33.594;-117.718;2023-01-10T07:51:14;100609.97;;;12.15;100.00
16525;BME280;8375;33.594;-117.718;2023-01-10T07:53:43;100601.44;;;12.13;100.00
16525;BME280;8375;33.594;-117.718;2023-01-10T07:56:11;100596.84;;;12.05;100.00
16525;BME280;8375;33.594;-117.718;2023-01-10T07:58:40;100592.94;;;12.11;100.00
16525;BME280;8375;33.594;-117.718;2023-01-10T08:01:09;100587.50;;;12.14;100.00
16525;BME280;8375;33.594;-117.718;2023-01-10T08:03:37;100582.88;;;12.17;100.00
16525;BME280;8375;33.594;-117.718;2023-01-10T08:06:09;100575.78;;;12.20;100.00
16525;BME280;8375;33.594;-117.718;2023-01-10T08:08:38;100584.06;;;12.13;100.00
16525;BME280;8375;33.594;-117.718;2023-01-10T08:11:06;100572.97;;;12.11;100.00
16525;BME280;8375;33.594;-117.718;2023-01-10T08:13:35;100577.78;;;12.16;100.00
16525;BME280;8375;33.594;-117.718;2023-01-10T08:16:05;100578.63;;;12.16;100.00
16525;BME280;8375;33.594;-117.718;2023-01-10T08:18:34;100565.50;;;12.18;100.00
16525;BME280;8375;33.594;-117.718;2023-01-10T08:21:04;100570.59;;;12.20;100.00
16525;BME280;8375;33.594;-117.718;2023-01-10T08:23:34;100577.78;;;12.16;100.00
16525;BME280;8375;33.594;-117.718;2023-01-10T08:26:03;100585.72;;;12.14;100.00
16525;BME280;8375;33.594;-117.718;2023-01-10T08:28:32;100583.84;;;12.16;100.00
16525;BME280;8375;33.594;-117.718;2023-01-10T08:31:05;100587.16;;;12.18;100.00
16525;BME280;8375;33.594;-117.718;2023-01-10T08:33:35;100588.81;;;12.20;100.00
16525;BME280;8375;33.594;-117.718;2023-01-10T08:36:04;100592.22;;;12.20;100.00
16525;BME280;8375;33.594;-117.718;2023-01-10T08:38:34;100601.91;;;12.18;100.00
16525;BME280;8375;33.594;-117.718;2023-01-10T08:41:03;100614.84;;;12.20;100.00
16525;BME280;8375;33.594;-117.718;2023-01-10T08:43:32;100606.31;;;12.17;100.00
16525;BME280;8375;33.594;-117.718;2023-01-10T08:46:00;100598.50;;;12.17;100.00
16525;BME280;8375;33.594;-117.718;2023-01-10T08:48:29;100594.50;;;12.13;100.00
16525;BME280;8375;33.594;-117.718;2023-01-10T08:50:58;100583.38;;;12.11;100.00
16525;BME280;8375;33.594;-117.718;2023-01-10T08:53:28;100578.16;;;12.00;100.00
16525;BME280;8375;33.594;-117.718;2023-01-10T08:55:59;100587.84;;;11.98;100.00
16525;BME280;8375;33.594;-117.718;2023-01-10T08:58:27;100603.53;;;11.96;100.00
16525;BME280;8375;33.594;-117.718;2023-01-10T09:00:56;100597.28;;;11.99;100.00
16525;BME280;8375;33.594;-117.718;2023-01-10T09:03:24;100588.56;;;12.00;100.00
16525;BME280;8375;33.594;-117.718;2023-01-10T09:05:53;100599.03;;;11.98;100.00
16525;BME280;8375;33.594;-117.718;2023-01-10T09:08:21;100600.50;;;12.02;100.00
16525;BME280;8375;33.594;-117.718;2023-01-10T09:10:50;100612.69;;;12.02;100.00
16525;BME280;8375;33.594;-117.718;2023-01-10T09:13:20;100622.25;;;12.01;100.00
16525;BME280;8375;33.594;-117.718;2023-01-10T09:15:50;100625.91;;;11.99;100.00
16525;BME280;8375;33.594;-117.718;2023-01-10T09:18:19;100613.72;;;11.99;100.00
16525;BME280;8375;33.594;-117.718;2023-01-10T09:20:49;100616.44;;;11.98;100.00
16525;BME280;8375;33.594;-117.718;2023-01-10T09:23:19;100616.91;;;11.92;100.00
16525;BME280;8375;33.594;-117.718;2023-01-10T09:25:49;100608.50;;;11.88;100.00
16525;BME280;8375;33.594;-117.718;2023-01-10T09:28:20;100611.56;;;11.82;100.00
16525;BME280;8375;33.594;-117.718;2023-01-10T09:30:50;100616.78;;;11.82;100.00
16525;BME280;8375;33.594;-117.718;2023-01-10T09:33:18;100628.25;;;11.79;100.00
16525;BME280;8375;33.594;-117.718;2023-01-10T09:35:47;100627.63;;;11.76;100.00
16525;BME280;8375;33.594;-117.718;2023-01-10T09:38:17;100636.88;;;11.80;100.00
16525;BME280;8375;33.594;-117.718;2023-01-10T09:41:01;100635.34;;;11.77;100.00
16525;BME280;8375;33.594;-117.718;2023-01-10T09:43:45;100644.41;;;11.71;100.00
16525;BME280;8375;33.594;-117.718;2023-01-10T09:46:25;100640.88;;;11.72;100.00
16525;BME280;8375;33.594;-117.718;2023-01-10T09:49:05;100635.78;;;11.71;100.00
16525;BME280;8375;33.594;-117.718;2023-01-10T09:51:39;100617.22;;;11.64;100.00
16525;BME280;8375;33.594;-117.718;2023-01-10T09:54:12;100620.75;;;11.63;100.00
16525;BME280;8375;33.594;-117.718;2023-01-10T09:56:43;100623.34;;;11.63;100.00
16525;BME280;8375;33.594;-117.718;2023-01-10T09:59:18;100624.19;;;11.64;100.00
16525;BME280;8375;33.594;-117.718;2023-01-10T10:01:49;100630.94;;;11.66;100.00
16525;BME280;8375;33.594;-117.718;2023-01-10T10:04:24;100640.28;;;11.69;100.00
16525;BME280;8375;33.594;-117.718;2023-01-10T10:06:54;100649.75;;;11.70;100.00
16525;BME280;8375;33.594;-117.718;2023-01-10T10:09:25;100647.47;;;11.65;100.00
16525;BME280;8375;33.594;-117.718;2023-01-10T10:12:06;100647.38;;;11.67;100.00
16525;BME280;8375;33.594;-117.718;2023-01-10T10:14:50;100653.06;;;11.72;100.00
16525;BME280;8375;33.594;-117.718;2023-01-10T10:17:36;100642.16;;;11.67;100.00
16525;BME280;8375;33.594;-117.718;2023-01-10T10:20:27;100636.97;;;11.67;100.00
16525;BME280;8375;33.594;-117.718;2023-01-10T10:23:20;100639.78;;;11.64;100.00
16525;BME280;8375;33.594;-117.718;2023-01-10T10:26:00;100630.22;;;11.64;100.00
16525;BME280;8375;33.594;-117.718;2023-01-10T10:31:36;100618.50;;;11.58;100.00
16525;BME280;8375;33.594;-117.718;2023-01-10T10:34:13;100631.50;;;11.58;100.00
16525;BME280;8375;33.594;-117.718;2023-01-10T10:36:48;100626.78;;;11.64;100.00
16525;BME280;8375;33.594;-117.718;2023-01-10T10:39:21;100616.16;;;11.67;100.00
16525;BME280;8375;33.594;-117.718;2023-01-10T10:41:52;100614.84;;;11.61;100.00
16525;BME280;8375;33.594;-117.718;2023-01-10T10:44:32;100609.53;;;11.63;100.00
16525;BME280;8375;33.594;-117.718;2023-01-10T10:47:12;100601.13;;;11.59;100.00
16525;BME280;8375;33.594;-117.718;2023-01-10T10:49:44;100609.63;;;11.61;100.00
16525;BME280;8375;33.594;-117.718;2023-01-10T10:52:21;100613.78;;;11.64;100.00
16525;BME280;8375;33.594;-117.718;2023-01-10T10:54:52;100608.22;;;11.68;100.00
16525;BME280;8375;33.594;-117.718;2023-01-10T10:57:23;100611.94;;;11.77;100.00
16525;BME280;8375;33.594;-117.718;2023-01-10T10:59:54;100604.25;;;11.87;100.00
16525;BME280;8375;33.594;-117.718;2023-01-10T11:02:27;100595.72;;;11.85;100.00
16525;BME280;8375;33.594;-117.718;2023-01-10T11:04:58;100603.91;;;11.92;100.00
16525;BME280;8375;33.594;-117.718;2023-01-10T11:07:30;100599.75;;;11.89;100.00
16525;BME280;8375;33.594;-117.718;2023-01-10T11:10:02;100603.66;;;11.72;100.00
16525;BME280;8375;33.594;-117.718;2023-01-10T11:12:49;100602.00;;;11.71;100.00
16525;BME280;8375;33.594;-117.718;2023-01-10T11:15:34;100586.22;;;11.61;100.00
16525;BME280;8375;33.594;-117.718;2023-01-10T11:18:06;100583.63;;;11.61;100.00
16525;BME280;8375;33.594;-117.718;2023-01-10T11:20:34;100586.38;;;11.59;100.00
16525;BME280;8375;33.594;-117.718;2023-01-10T11:23:04;100584.09;;;11.55;100.00
16525;BME280;8375;33.594;-117.718;2023-01-10T11:25:33;100574.31;;;11.58;100.00
16525;BME280;8375;33.594;-117.718;2023-01-10T11:28:02;100580.44;;;11.57;100.00
16525;BME280;8375;33.594;-117.718;2023-01-10T11:30:32;100573.47;;;11.58;100.00
16525;BME280;8375;33.594;-117.718;2023-01-10T11:33:05;100575.47;;;11.54;100.00
16525;BME280;8375;33.594;-117.718;2023-01-10T11:35:36;100577.94;;;11.56;100.00
16525;BME280;8375;33.594;-117.718;2023-01-10T11:38:18;100572.88;;;11.54;100.00
16525;BME280;8375;33.594;-117.718;2023-01-10T11:40:54;100565.63;;;11.47;100.00
16525;BME280;8375;33.594;-117.718;2023-01-10T11:43:25;100563.88;;;11.47;100.00
16525;BME280;8375;33.594;-117.718;2023-01-10T11:45:56;100561.16;;;11.49;100.00
16525;BME280;8375;33.594;-117.718;2023-01-10T11:48:38;100570.84;;;11.47;100.00
16525;BME280;8375;33.594;-117.718;2023-01-10T11:51:18;100572.88;;;11.54;100.00
16525;BME280;8375;33.594;-117.718;2023-01-10T11:53:54;100569.78;;;11.49;100.00
16525;BME280;8375;33.594;-117.718;2023-01-10T11:56:26;100573.34;;;11.48;100.00
16525;BME280;8375;33.594;-117.718;2023-01-10T11:58:57;100576.66;;;11.50;100.00
16525;BME280;8375;33.594;-117.718;2023-01-10T12:01:30;100567.91;;;11.51;100.00
16525;BME280;8375;33.594;-117.718;2023-01-10T12:04:03;100565.31;;;11.51;100.00
16525;BME280;8375;33.594;-117.718;2023-01-10T12:06:33;100559.63;;;11.46;100.00
16525;BME280;8375;33.594;-117.718;2023-01-10T12:09:02;100563.44;;;11.53;100.00
16525;BME280;8375;33.594;-117.718;2023-01-10T12:11:32;100562.94;;;11.48;100.00
16525;BME280;8375;33.594;-117.718;2023-01-10T12:14:01;100568.84;;;11.50;100.00
16525;BME280;8375;33.594;-117.718;2023-01-10T12:16:31;100564.47;;;11.51;100.00
16525;BME280;8375;33.594;-117.718;2023-01-10T12:19:03;100565.78;;;11.56;100.00
16525;BME280;8375;33.594;-117.718;2023-01-10T12:21:36;100574.41;;;11.57;100.00
16525;BME280;8375;33.594;-117.718;2023-01-10T12:24:13;100570.38;;;11.53;100.00
16525;BME280;8375;33.594;-117.718;2023-01-10T12:26:44;100570.50;;;11.51;100.00
16525;BME280;8375;33.594;-117.718;2023-01-10T12:29:20;100566.75;;;11.55;100.00
16525;BME280;8375;33.594;-117.718;2023-01-10T12:31:52;100565.66;;;11.58;100.00
16525;BME280;8375;33.594;-117.718;2023-01-10T12:34:25;100567.19;;;11.49;100.00
16525;BME280;8375;33.594;-117.718;2023-01-10T12:37:07;100555.38;;;11.45;100.00
16525;BME280;8375;33.594;-117.718;2023-01-10T12:39:40;100552.53;;;11.48;100.00
16525;BME280;8375;33.594;-117.718;2023-01-10T12:42:23;100563.75;;;11.49;100.00
16525;BME280;8375;33.594;-117.718;2023-01-10T12:45:15;100566.25;;;11.50;100.00
16525;BME280;8375;33.594;-117.718;2023-01-10T12:47:55;100567.19;;;11.49;100.00
16525;BME280;8375;33.594;-117.718;2023-01-10T12:50:29;100571.91;;;11.44;100.00
16525;BME280;8375;33.594;-117.718;2023-01-10T12:53:04;100556.31;;;11.44;100.00
16525;BME280;8375;33.594;-117.718;2023-01-10T12:55:37;100557.03;;;11.46;100.00
16525;BME280;8375;33.594;-117.718;2023-01-10T12:58:12;100563.66;;;11.50;100.00